Tuskeego, Iowa
Current Conditions -  °F | °C
As of 3:53 AM on Sunday 21 Dec 2014 (Local Time) from KLWD Reporting Station
Overcast Overcast  
Wind Chill: 26°   Ceiling: 2200
Heat Index: 35°   Visibility: 7mi
Dew Point: 34°   Wind: 14mph
Humidity: 96%   Direction: 180°S
Pressure: 30.04"   Gusts: NA
Location:  40.6502°N, 94.0732°W
Report Text: KLWD 210953Z AUTO 18012KT 7SM OVC022 02/01 A3004 RMK AO2 SLP184 T00170011
Loading
Personal Weather Stations






























Interactive Weather Map New forecast layout! Learn more

10-Day Weather Forecast

Advertisements
Track Severe Weather on mobile